sensor_id;sensor_type;location;lat;lon;timestamp;P1;durP1;ratioP1;P2;durP2;ratioP2
19163;SDS011;9714;51.208;4.242;2023-10-19T00:01:58;4.17;;;0.43;;
19163;SDS011;9714;51.208;4.242;2023-10-19T00:04:26;0.67;;;0.37;;
19163;SDS011;9714;51.208;4.242;2023-10-19T00:07:01;2.60;;;0.50;;
19163;SDS011;9714;51.208;4.242;2023-10-19T00:09:35;3.17;;;0.30;;
19163;SDS011;9714;51.208;4.242;2023-10-19T00:12:06;1.83;;;0.40;;
19163;SDS011;9714;51.208;4.242;2023-10-19T00:14:36;3.77;;;0.60;;
19163;SDS011;9714;51.208;4.242;2023-10-19T00:19:36;4.97;;;1.03;;
19163;SDS011;9714;51.208;4.242;2023-10-19T00:22:23;1.27;;;0.23;;
19163;SDS011;9714;51.208;4.242;2023-10-19T00:24:52;2.83;;;0.27;;
19163;SDS011;9714;51.208;4.242;2023-10-19T00:27:30;1.60;;;0.20;;
19163;SDS011;9714;51.208;4.242;2023-10-19T00:30:07;2.90;;;0.20;;
19163;SDS011;9714;51.208;4.242;2023-10-19T00:32:47;4.67;;;0.83;;
19163;SDS011;9714;51.208;4.242;2023-10-19T00:35:18;2.47;;;0.30;;
19163;SDS011;9714;51.208;4.242;2023-10-19T00:40:52;3.07;;;0.33;;
19163;SDS011;9714;51.208;4.242;2023-10-19T00:43:27;6.00;;;1.13;;
19163;SDS011;9714;51.208;4.242;2023-10-19T00:46:02;1.53;;;0.20;;
19163;SDS011;9714;51.208;4.242;2023-10-19T00:51:01;2.70;;;0.30;;
19163;SDS011;9714;51.208;4.242;2023-10-19T00:53:53;4.20;;;0.30;;
19163;SDS011;9714;51.208;4.242;2023-10-19T00:56:23;2.13;;;0.20;;
19163;SDS011;9714;51.208;4.242;2023-10-19T00:58:57;5.33;;;0.50;;
19163;SDS011;9714;51.208;4.242;2023-10-19T01:01:34;7.07;;;0.40;;
19163;SDS011;9714;51.208;4.242;2023-10-19T01:04:11;1.53;;;0.40;;
19163;SDS011;9714;51.208;4.242;2023-10-19T01:06:46;8.23;;;1.20;;
19163;SDS011;9714;51.208;4.242;2023-10-19T01:09:31;5.00;;;0.77;;
19163;SDS011;9714;51.208;4.242;2023-10-19T01:12:01;3.33;;;0.90;;
19163;SDS011;9714;51.208;4.242;2023-10-19T01:17:43;1.13;;;0.47;;
19163;SDS011;9714;51.208;4.242;2023-10-19T01:20:12;2.63;;;0.40;;
19163;SDS011;9714;51.208;4.242;2023-10-19T01:22:53;1.23;;;0.40;;
19163;SDS011;9714;51.208;4.242;2023-10-19T01:25:43;2.27;;;0.30;;
19163;SDS011;9714;51.208;4.242;2023-10-19T01:28:13;0.77;;;0.23;;
19163;SDS011;9714;51.208;4.242;2023-10-19T01:30:42;2.53;;;0.40;;
19163;SDS011;9714;51.208;4.242;2023-10-19T01:33:10;1.90;;;0.40;;
19163;SDS011;9714;51.208;4.242;2023-10-19T01:35:42;5.07;;;0.40;;
19163;SDS011;9714;51.208;4.242;2023-10-19T01:38:31;1.70;;;0.40;;
19163;SDS011;9714;51.208;4.242;2023-10-19T01:40:59;2.27;;;0.30;;
19163;SDS011;9714;51.208;4.242;2023-10-19T01:43:33;0.97;;;0.30;;
19163;SDS011;9714;51.208;4.242;2023-10-19T01:46:05;4.37;;;0.40;;
19163;SDS011;9714;51.208;4.242;2023-10-19T01:48:38;7.30;;;0.80;;
19163;SDS011;9714;51.208;4.242;2023-10-19T01:51:07;2.87;;;0.70;;
19163;SDS011;9714;51.208;4.242;2023-10-19T01:53:39;2.33;;;0.57;;
19163;SDS011;9714;51.208;4.242;2023-10-19T01:56:09;3.60;;;0.37;;
19163;SDS011;9714;51.208;4.242;2023-10-19T01:58:36;6.87;;;0.43;;
19163;SDS011;9714;51.208;4.242;2023-10-19T02:01:04;7.47;;;0.77;;
19163;SDS011;9714;51.208;4.242;2023-10-19T02:03:34;8.13;;;0.97;;
19163;SDS011;9714;51.208;4.242;2023-10-19T02:06:01;2.53;;;0.37;;
19163;SDS011;9714;51.208;4.242;2023-10-19T02:08:40;6.30;;;0.43;;
19163;SDS011;9714;51.208;4.242;2023-10-19T02:11:10;2.57;;;0.50;;
19163;SDS011;9714;51.208;4.242;2023-10-19T02:13:42;3.70;;;0.50;;
19163;SDS011;9714;51.208;4.242;2023-10-19T02:16:13;3.83;;;0.77;;
19163;SDS011;9714;51.208;4.242;2023-10-19T02:18:44;3.60;;;0.47;;
19163;SDS011;9714;51.208;4.242;2023-10-19T02:21:17;0.83;;;0.30;;
19163;SDS011;9714;51.208;4.242;2023-10-19T02:23:48;3.17;;;0.40;;
19163;SDS011;9714;51.208;4.242;2023-10-19T02:26:17;0.10;;;0.10;;
19163;SDS011;9714;51.208;4.242;2023-10-19T02:28:46;5.10;;;0.80;;
19163;SDS011;9714;51.208;4.242;2023-10-19T02:31:17;5.40;;;0.30;;
19163;SDS011;9714;51.208;4.242;2023-10-19T02:33:44;0.53;;;0.20;;
19163;SDS011;9714;51.208;4.242;2023-10-19T02:36:16;3.80;;;0.70;;
19163;SDS011;9714;51.208;4.242;2023-10-19T02:38:45;4.33;;;0.40;;
19163;SDS011;9714;51.208;4.242;2023-10-19T02:41:16;2.87;;;0.40;;
19163;SDS011;9714;51.208;4.242;2023-10-19T02:43:47;5.27;;;0.77;;
19163;SDS011;9714;51.208;4.242;2023-10-19T02:46:28;1.50;;;0.30;;
19163;SDS011;9714;51.208;4.242;2023-10-19T02:48:59;1.53;;;0.40;;
19163;SDS011;9714;51.208;4.242;2023-10-19T02:51:26;1.80;;;0.50;;
19163;SDS011;9714;51.208;4.242;2023-10-19T02:53:57;3.77;;;0.70;;
19163;SDS011;9714;51.208;4.242;2023-10-19T02:56:29;8.03;;;0.53;;
19163;SDS011;9714;51.208;4.242;2023-10-19T02:58:56;7.13;;;0.80;;
19163;SDS011;9714;51.208;4.242;2023-10-19T03:01:29;2.67;;;0.67;;
19163;SDS011;9714;51.208;4.242;2023-10-19T03:04:02;2.00;;;0.60;;
19163;SDS011;9714;51.208;4.242;2023-10-19T03:06:31;6.13;;;0.73;;
19163;SDS011;9714;51.208;4.242;2023-10-19T03:09:09;3.60;;;0.50;;
19163;SDS011;9714;51.208;4.242;2023-10-19T03:11:45;5.10;;;0.50;;
19163;SDS011;9714;51.208;4.242;2023-10-19T03:14:11;4.03;;;0.60;;
19163;SDS011;9714;51.208;4.242;2023-10-19T03:16:41;2.00;;;0.40;;
19163;SDS011;9714;51.208;4.242;2023-10-19T03:19:09;3.57;;;1.07;;
19163;SDS011;9714;51.208;4.242;2023-10-19T03:21:45;2.97;;;0.63;;
19163;SDS011;9714;51.208;4.242;2023-10-19T03:24:14;5.10;;;0.73;;
19163;SDS011;9714;51.208;4.242;2023-10-19T03:27:03;3.10;;;0.73;;
19163;SDS011;9714;51.208;4.242;2023-10-19T03:29:38;3.03;;;0.90;;
19163;SDS011;9714;51.208;4.242;2023-10-19T03:32:11;3.47;;;0.53;;
19163;SDS011;9714;51.208;4.242;2023-10-19T03:34:52;4.93;;;0.80;;
19163;SDS011;9714;51.208;4.242;2023-10-19T03:37:23;7.00;;;0.60;;
19163;SDS011;9714;51.208;4.242;2023-10-19T03:39:51;3.70;;;0.70;;
19163;SDS011;9714;51.208;4.242;2023-10-19T03:42:22;6.40;;;0.70;;
19163;SDS011;9714;51.208;4.242;2023-10-19T03:44:53;6.93;;;0.70;;
19163;SDS011;9714;51.208;4.242;2023-10-19T03:47:24;5.87;;;0.67;;
19163;SDS011;9714;51.208;4.242;2023-10-19T03:49:57;7.23;;;0.80;;
19163;SDS011;9714;51.208;4.242;2023-10-19T03:52:29;4.73;;;1.20;;
19163;SDS011;9714;51.208;4.242;2023-10-19T03:54:56;5.27;;;0.60;;
19163;SDS011;9714;51.208;4.242;2023-10-19T03:57:28;3.63;;;0.67;;
19163;SDS011;9714;51.208;4.242;2023-10-19T03:59:55;3.07;;;0.70;;
19163;SDS011;9714;51.208;4.242;2023-10-19T04:02:23;3.40;;;0.60;;
19163;SDS011;9714;51.208;4.242;2023-10-19T04:04:55;5.90;;;1.17;;
19163;SDS011;9714;51.208;4.242;2023-10-19T04:07:23;2.87;;;0.83;;
19163;SDS011;9714;51.208;4.242;2023-10-19T04:09:52;3.23;;;0.47;;
19163;SDS011;9714;51.208;4.242;2023-10-19T04:12:28;4.70;;;0.97;;
19163;SDS011;9714;51.208;4.242;2023-10-19T04:15:04;8.70;;;1.17;;
19163;SDS011;9714;51.208;4.242;2023-10-19T04:17:42;10.27;;;1.07;;
19163;SDS011;9714;51.208;4.242;2023-10-19T04:20:19;2.83;;;0.80;;
19163;SDS011;9714;51.208;4.242;2023-10-19T04:23:07;4.90;;;0.80;;
19163;SDS011;9714;51.208;4.242;2023-10-19T04:32:07;6.10;;;1.40;;
19163;SDS011;9714;51.208;4.242;2023-10-19T04:35:59;4.70;;;0.90;;
19163;SDS011;9714;51.208;4.242;2023-10-19T04:38:34;7.20;;;1.43;;
19163;SDS011;9714;51.208;4.242;2023-10-19T04:41:05;4.63;;;0.73;;
19163;SDS011;9714;51.208;4.242;2023-10-19T04:43:34;7.33;;;1.03;;
19163;SDS011;9714;51.208;4.242;2023-10-19T04:46:06;6.63;;;1.10;;
19163;SDS011;9714;51.208;4.242;2023-10-19T04:48:38;2.97;;;0.83;;
19163;SDS011;9714;51.208;4.242;2023-10-19T04:51:15;5.30;;;0.70;;
19163;SDS011;9714;51.208;4.242;2023-10-19T04:53:42;4.10;;;1.03;;
19163;SDS011;9714;51.208;4.242;2023-10-19T04:56:10;6.47;;;0.83;;
19163;SDS011;9714;51.208;4.242;2023-10-19T04:58:48;4.53;;;1.33;;
19163;SDS011;9714;51.208;4.242;2023-10-19T05:01:32;5.00;;;1.30;;
19163;SDS011;9714;51.208;4.242;2023-10-19T05:04:14;7.50;;;1.17;;
19163;SDS011;9714;51.208;4.242;2023-10-19T05:06:54;3.97;;;1.00;;
19163;SDS011;9714;51.208;4.242;2023-10-19T05:09:50;5.33;;;1.73;;
19163;SDS011;9714;51.208;4.242;2023-10-19T05:12:28;7.33;;;1.40;;
19163;SDS011;9714;51.208;4.242;2023-10-19T05:15:12;6.17;;;0.60;;
19163;SDS011;9714;51.208;4.242;2023-10-19T05:17:41;3.03;;;1.10;;
19163;SDS011;9714;51.208;4.242;2023-10-19T05:20:11;4.00;;;0.90;;
19163;SDS011;9714;51.208;4.242;2023-10-19T05:22:39;6.90;;;1.10;;
19163;SDS011;9714;51.208;4.242;2023-10-19T05:25:12;4.20;;;0.80;;
19163;SDS011;9714;51.208;4.242;2023-10-19T05:27:39;6.57;;;0.63;;
19163;SDS011;9714;51.208;4.242;2023-10-19T05:30:12;9.17;;;0.93;;
19163;SDS011;9714;51.208;4.242;2023-10-19T05:32:52;6.13;;;0.67;;
19163;SDS011;9714;51.208;4.242;2023-10-19T05:35:29;4.27;;;0.93;;
19163;SDS011;9714;51.208;4.242;2023-10-19T05:38:16;8.27;;;1.30;;
19163;SDS011;9714;51.208;4.242;2023-10-19T05:41:09;5.70;;;0.87;;
19163;SDS011;9714;51.208;4.242;2023-10-19T05:43:38;5.10;;;0.67;;
19163;SDS011;9714;51.208;4.242;2023-10-19T05:46:23;7.03;;;1.13;;
19163;SDS011;9714;51.208;4.242;2023-10-19T05:49:16;6.03;;;1.30;;
19163;SDS011;9714;51.208;4.242;2023-10-19T05:51:48;7.50;;;1.40;;
19163;SDS011;9714;51.208;4.242;2023-10-19T05:54:19;6.83;;;0.80;;
19163;SDS011;9714;51.208;4.242;2023-10-19T05:57:20;8.50;;;1.17;;
19163;SDS011;9714;51.208;4.242;2023-10-19T05:59:50;5.97;;;0.90;;
19163;SDS011;9714;51.208;4.242;2023-10-19T06:02:18;9.23;;;1.23;;
19163;SDS011;9714;51.208;4.242;2023-10-19T06:04:47;6.97;;;0.90;;
19163;SDS011;9714;51.208;4.242;2023-10-19T06:07:19;9.77;;;1.17;;
19163;SDS011;9714;51.208;4.242;2023-10-19T06:09:54;12.33;;;1.40;;
19163;SDS011;9714;51.208;4.242;2023-10-19T06:12:21;9.17;;;1.50;;
19163;SDS011;9714;51.208;4.242;2023-10-19T06:14:49;6.47;;;1.53;;
19163;SDS011;9714;51.208;4.242;2023-10-19T06:17:19;6.67;;;1.20;;
19163;SDS011;9714;51.208;4.242;2023-10-19T06:19:46;7.53;;;1.10;;
19163;SDS011;9714;51.208;4.242;2023-10-19T06:22:14;8.83;;;1.60;;
19163;SDS011;9714;51.208;4.242;2023-10-19T06:24:44;6.80;;;0.90;;
19163;SDS011;9714;51.208;4.242;2023-10-19T06:27:11;5.97;;;1.63;;
19163;SDS011;9714;51.208;4.242;2023-10-19T06:29:42;3.83;;;0.97;;
19163;SDS011;9714;51.208;4.242;2023-10-19T06:32:11;2.17;;;0.63;;
19163;SDS011;9714;51.208;4.242;2023-10-19T06:34:41;4.63;;;1.00;;
19163;SDS011;9714;51.208;4.242;2023-10-19T06:37:10;12.60;;;2.20;;
19163;SDS011;9714;51.208;4.242;2023-10-19T06:39:39;3.13;;;0.90;;
19163;SDS011;9714;51.208;4.242;2023-10-19T06:42:09;8.00;;;1.47;;
19163;SDS011;9714;51.208;4.242;2023-10-19T06:44:40;7.50;;;0.80;;
19163;SDS011;9714;51.208;4.242;2023-10-19T06:47:08;5.63;;;1.00;;
19163;SDS011;9714;51.208;4.242;2023-10-19T06:49:38;10.77;;;1.70;;
19163;SDS011;9714;51.208;4.242;2023-10-19T06:52:06;7.73;;;1.20;;
19163;SDS011;9714;51.208;4.242;2023-10-19T06:54:37;6.37;;;1.40;;
19163;SDS011;9714;51.208;4.242;2023-10-19T06:57:06;10.07;;;1.40;;
19163;SDS011;9714;51.208;4.242;2023-10-19T06:59:35;4.87;;;1.10;;
19163;SDS011;9714;51.208;4.242;2023-10-19T07:02:05;6.13;;;1.80;;
19163;SDS011;9714;51.208;4.242;2023-10-19T07:04:34;10.17;;;1.93;;
19163;SDS011;9714;51.208;4.242;2023-10-19T07:07:01;6.80;;;1.50;;
19163;SDS011;9714;51.208;4.242;2023-10-19T07:09:29;9.30;;;1.83;;
19163;SDS011;9714;51.208;4.242;2023-10-19T07:11:58;8.00;;;1.83;;
19163;SDS011;9714;51.208;4.242;2023-10-19T07:14:26;9.53;;;1.90;;
19163;SDS011;9714;51.208;4.242;2023-10-19T07:16:55;11.90;;;1.70;;
19163;SDS011;9714;51.208;4.242;2023-10-19T07:19:22;7.00;;;2.00;;
19163;SDS011;9714;51.208;4.242;2023-10-19T07:21:50;10.03;;;1.87;;
19163;SDS011;9714;51.208;4.242;2023-10-19T07:24:22;10.47;;;2.50;;
19163;SDS011;9714;51.208;4.242;2023-10-19T07:26:51;9.57;;;1.77;;
19163;SDS011;9714;51.208;4.242;2023-10-19T07:29:30;9.30;;;1.80;;
19163;SDS011;9714;51.208;4.242;2023-10-19T07:32:02;11.37;;;2.67;;
19163;SDS011;9714;51.208;4.242;2023-10-19T07:34:31;6.63;;;1.73;;
19163;SDS011;9714;51.208;4.242;2023-10-19T07:37:00;8.43;;;1.97;;
19163;SDS011;9714;51.208;4.242;2023-10-19T07:39:29;10.27;;;1.67;;
19163;SDS011;9714;51.208;4.242;2023-10-19T07:41:59;8.00;;;1.67;;
19163;SDS011;9714;51.208;4.242;2023-10-19T07:44:27;9.27;;;1.80;;
19163;SDS011;9714;51.208;4.242;2023-10-19T07:46:55;10.13;;;1.30;;
19163;SDS011;9714;51.208;4.242;2023-10-19T07:49:24;9.33;;;2.00;;
19163;SDS011;9714;51.208;4.242;2023-10-19T07:51:51;8.37;;;2.13;;
19163;SDS011;9714;51.208;4.242;2023-10-19T07:54:19;8.73;;;2.30;;
19163;SDS011;9714;51.208;4.242;2023-10-19T07:56:49;4.07;;;1.10;;
19163;SDS011;9714;51.208;4.242;2023-10-19T07:59:16;6.83;;;1.07;;
19163;SDS011;9714;51.208;4.242;2023-10-19T08:01:44;9.23;;;2.07;;
19163;SDS011;9714;51.208;4.242;2023-10-19T08:04:12;11.83;;;1.37;;
19163;SDS011;9714;51.208;4.242;2023-10-19T08:06:41;10.33;;;1.63;;
19163;SDS011;9714;51.208;4.242;2023-10-19T08:09:09;16.87;;;2.40;;
19163;SDS011;9714;51.208;4.242;2023-10-19T08:11:38;5.63;;;0.63;;
19163;SDS011;9714;51.208;4.242;2023-10-19T08:14:07;3.37;;;0.90;;
19163;SDS011;9714;51.208;4.242;2023-10-19T08:16:35;8.07;;;1.50;;
19163;SDS011;9714;51.208;4.242;2023-10-19T08:19:02;9.50;;;1.63;;
19163;SDS011;9714;51.208;4.242;2023-10-19T08:21:32;7.67;;;0.97;;
19163;SDS011;9714;51.208;4.242;2023-10-19T08:24:02;6.60;;;1.10;;
19163;SDS011;9714;51.208;4.242;2023-10-19T08:26:32;5.27;;;1.00;;
19163;SDS011;9714;51.208;4.242;2023-10-19T08:29:02;9.07;;;1.40;;
19163;SDS011;9714;51.208;4.242;2023-10-19T08:31:38;8.90;;;1.40;;
19163;SDS011;9714;51.208;4.242;2023-10-19T08:34:07;5.50;;;0.83;;
19163;SDS011;9714;51.208;4.242;2023-10-19T08:36:37;7.63;;;1.80;;
19163;SDS011;9714;51.208;4.242;2023-10-19T08:39:08;8.83;;;1.20;;
19163;SDS011;9714;51.208;4.242;2023-10-19T08:41:38;10.37;;;1.37;;
19163;SDS011;9714;51.208;4.242;2023-10-19T08:44:07;9.20;;;1.50;;
19163;SDS011;9714;51.208;4.242;2023-10-19T08:46:37;8.60;;;0.93;;
19163;SDS011;9714;51.208;4.242;2023-10-19T08:49:09;9.47;;;1.70;;
19163;SDS011;9714;51.208;4.242;2023-10-19T08:51:38;7.75;;;1.92;;
19163;SDS011;9714;51.208;4.242;2023-10-19T08:54:05;6.07;;;1.30;;
19163;SDS011;9714;51.208;4.242;2023-10-19T08:56:38;4.93;;;0.80;;
19163;SDS011;9714;51.208;4.242;2023-10-19T08:59:08;7.53;;;1.17;;
19163;SDS011;9714;51.208;4.242;2023-10-19T09:01:46;8.02;;;1.75;;
19163;SDS011;9714;51.208;4.242;2023-10-19T09:04:22;11.88;;;1.85;;
19163;SDS011;9714;51.208;4.242;2023-10-19T09:06:56;5.97;;;1.33;;
19163;SDS011;9714;51.208;4.242;2023-10-19T09:09:38;12.93;;;1.80;;
19163;SDS011;9714;51.208;4.242;2023-10-19T09:12:19;14.32;;;1.48;;
19163;SDS011;9714;51.208;4.242;2023-10-19T09:17:57;4.37;;;0.93;;
19163;SDS011;9714;51.208;4.242;2023-10-19T09:20:39;8.53;;;1.20;;
19163;SDS011;9714;51.208;4.242;2023-10-19T09:23:08;15.07;;;1.60;;
19163;SDS011;9714;51.208;4.242;2023-10-19T09:25:37;7.27;;;0.93;;
19163;SDS011;9714;51.208;4.242;2023-10-19T09:28:05;4.30;;;0.97;;
19163;SDS011;9714;51.208;4.242;2023-10-19T09:30:35;11.53;;;1.57;;
19163;SDS011;9714;51.208;4.242;2023-10-19T09:33:04;8.23;;;1.70;;
19163;SDS011;9714;51.208;4.242;2023-10-19T09:35:32;6.63;;;0.83;;
19163;SDS011;9714;51.208;4.242;2023-10-19T09:38:02;5.17;;;1.13;;
19163;SDS011;9714;51.208;4.242;2023-10-19T09:40:32;7.27;;;1.77;;
19163;SDS011;9714;51.208;4.242;2023-10-19T09:43:02;17.67;;;2.40;;
19163;SDS011;9714;51.208;4.242;2023-10-19T09:45:36;7.67;;;1.33;;
19163;SDS011;9714;51.208;4.242;2023-10-19T09:48:09;10.40;;;1.23;;
19163;SDS011;9714;51.208;4.242;2023-10-19T09:50:43;9.13;;;1.43;;
19163;SDS011;9714;51.208;4.242;2023-10-19T09:53:16;8.10;;;1.77;;
19163;SDS011;9714;51.208;4.242;2023-10-19T09:55:45;10.13;;;1.80;;
19163;SDS011;9714;51.208;4.242;2023-10-19T09:58:16;10.87;;;2.10;;
19163;SDS011;9714;51.208;4.242;2023-10-19T10:00:51;9.43;;;1.10;;
19163;SDS011;9714;51.208;4.242;2023-10-19T10:06:26;9.57;;;1.73;;
19163;SDS011;9714;51.208;4.242;2023-10-19T10:08:54;13.37;;;2.33;;
19163;SDS011;9714;51.208;4.242;2023-10-19T10:11:29;10.87;;;1.53;;
19163;SDS011;9714;51.208;4.242;2023-10-19T10:14:04;7.87;;;1.40;;
19163;SDS011;9714;51.208;4.242;2023-10-19T10:17:01;12.10;;;1.97;;
19163;SDS011;9714;51.208;4.242;2023-10-19T10:19:35;7.93;;;1.57;;
19163;SDS011;9714;51.208;4.242;2023-10-19T10:22:03;9.90;;;1.80;;
19163;SDS011;9714;51.208;4.242;2023-10-19T10:24:39;7.83;;;1.47;;
19163;SDS011;9714;51.208;4.242;2023-10-19T10:27:07;5.17;;;2.07;;
19163;SDS011;9714;51.208;4.242;2023-10-19T10:29:43;8.70;;;2.20;;
19163;SDS011;9714;51.208;4.242;2023-10-19T10:38:18;7.18;;;1.80;;
19163;SDS011;9714;51.208;4.242;2023-10-19T10:40:46;8.38;;;1.73;;
19163;SDS011;9714;51.208;4.242;2023-10-19T10:43:14;6.70;;;1.35;;
19163;SDS011;9714;51.208;4.242;2023-10-19T10:45:45;9.60;;;1.95;;
19163;SDS011;9714;51.208;4.242;2023-10-19T10:48:12;11.23;;;1.83;;
19163;SDS011;9714;51.208;4.242;2023-10-19T10:50:40;4.57;;;1.30;;
19163;SDS011;9714;51.208;4.242;2023-10-19T10:53:07;9.77;;;1.40;;
19163;SDS011;9714;51.208;4.242;2023-10-19T10:55:37;9.98;;;1.52;;
19163;SDS011;9714;51.208;4.242;2023-10-19T10:58:05;8.90;;;1.45;;
19163;SDS011;9714;51.208;4.242;2023-10-19T11:00:32;15.45;;;1.80;;
19163;SDS011;9714;51.208;4.242;2023-10-19T11:03:04;12.95;;;2.20;;
19163;SDS011;9714;51.208;4.242;2023-10-19T11:05:35;10.98;;;1.63;;
19163;SDS011;9714;51.208;4.242;2023-10-19T11:08:04;8.00;;;1.60;;
19163;SDS011;9714;51.208;4.242;2023-10-19T11:10:34;9.73;;;1.67;;
19163;SDS011;9714;51.208;4.242;2023-10-19T11:13:03;5.90;;;1.77;;
19163;SDS011;9714;51.208;4.242;2023-10-19T11:15:34;7.55;;;1.25;;
19163;SDS011;9714;51.208;4.242;2023-10-19T11:18:03;7.47;;;1.35;;
19163;SDS011;9714;51.208;4.242;2023-10-19T11:20:32;4.97;;;1.30;;
19163;SDS011;9714;51.208;4.242;2023-10-19T11:23:01;8.13;;;1.17;;
19163;SDS011;9714;51.208;4.242;2023-10-19T11:25:30;7.53;;;1.33;;
19163;SDS011;9714;51.208;4.242;2023-10-19T11:27:59;5.57;;;0.93;;
19163;SDS011;9714;51.208;4.242;2023-10-19T11:30:30;10.32;;;1.20;;
19163;SDS011;9714;51.208;4.242;2023-10-19T11:32:58;4.00;;;1.10;;
19163;SDS011;9714;51.208;4.242;2023-10-19T11:35:28;9.37;;;1.70;;
19163;SDS011;9714;51.208;4.242;2023-10-19T11:37:57;5.13;;;1.00;;
19163;SDS011;9714;51.208;4.242;2023-10-19T11:40:27;5.27;;;1.10;;
19163;SDS011;9714;51.208;4.242;2023-10-19T11:42:54;6.37;;;1.00;;
19163;SDS011;9714;51.208;4.242;2023-10-19T11:45:23;12.40;;;1.93;;
19163;SDS011;9714;51.208;4.242;2023-10-19T11:47:51;10.90;;;2.47;;
19163;SDS011;9714;51.208;4.242;2023-10-19T11:50:20;8.33;;;1.63;;
19163;SDS011;9714;51.208;4.242;2023-10-19T11:52:52;11.47;;;1.77;;
19163;SDS011;9714;51.208;4.242;2023-10-19T11:55:19;6.97;;;1.77;;
19163;SDS011;9714;51.208;4.242;2023-10-19T11:57:47;8.23;;;2.17;;
19163;SDS011;9714;51.208;4.242;2023-10-19T12:00:15;4.27;;;1.00;;
19163;SDS011;9714;51.208;4.242;2023-10-19T12:02:47;7.83;;;1.37;;
19163;SDS011;9714;51.208;4.242;2023-10-19T12:05:15;8.83;;;2.10;;
19163;SDS011;9714;51.208;4.242;2023-10-19T12:07:42;4.80;;;1.20;;
19163;SDS011;9714;51.208;4.242;2023-10-19T12:10:13;5.97;;;1.03;;
19163;SDS011;9714;51.208;4.242;2023-10-19T12:12:40;13.83;;;1.57;;
19163;SDS011;9714;51.208;4.242;2023-10-19T12:15:08;11.60;;;1.80;;
19163;SDS011;9714;51.208;4.242;2023-10-19T12:17:37;6.57;;;1.40;;
19163;SDS011;9714;51.208;4.242;2023-10-19T12:20:05;6.40;;;1.50;;
19163;SDS011;9714;51.208;4.242;2023-10-19T12:22:33;9.73;;;1.27;;
19163;SDS011;9714;51.208;4.242;2023-10-19T12:25:04;9.20;;;1.43;;
19163;SDS011;9714;51.208;4.242;2023-10-19T12:27:33;8.77;;;1.57;;
19163;SDS011;9714;51.208;4.242;2023-10-19T12:30:04;11.07;;;1.30;;
19163;SDS011;9714;51.208;4.242;2023-10-19T12:32:47;7.20;;;1.03;;
19163;SDS011;9714;51.208;4.242;2023-10-19T12:35:17;8.07;;;1.40;;
19163;SDS011;9714;51.208;4.242;2023-10-19T12:37:46;6.77;;;1.53;;
19163;SDS011;9714;51.208;4.242;2023-10-19T12:40:17;8.40;;;1.37;;
19163;SDS011;9714;51.208;4.242;2023-10-19T12:42:58;8.73;;;1.30;;
19163;SDS011;9714;51.208;4.242;2023-10-19T12:45:29;10.07;;;1.60;;
19163;SDS011;9714;51.208;4.242;2023-10-19T12:48:02;9.17;;;2.13;;
19163;SDS011;9714;51.208;4.242;2023-10-19T12:50:33;9.70;;;1.57;;
19163;SDS011;9714;51.208;4.242;2023-10-19T12:53:01;9.20;;;1.47;;
19163;SDS011;9714;51.208;4.242;2023-10-19T12:55:32;7.50;;;1.40;;
19163;SDS011;9714;51.208;4.242;2023-10-19T12:58:04;7.73;;;1.40;;
19163;SDS011;9714;51.208;4.242;2023-10-19T13:00:34;7.73;;;1.50;;
19163;SDS011;9714;51.208;4.242;2023-10-19T13:03:04;6.70;;;1.43;;
19163;SDS011;9714;51.208;4.242;2023-10-19T13:05:34;8.30;;;1.80;;
19163;SDS011;9714;51.208;4.242;2023-10-19T13:08:05;8.23;;;1.70;;
19163;SDS011;9714;51.208;4.242;2023-10-19T13:10:34;7.30;;;1.60;;
19163;SDS011;9714;51.208;4.242;2023-10-19T13:13:08;9.77;;;1.70;;
19163;SDS011;9714;51.208;4.242;2023-10-19T13:15:38;4.80;;;1.45;;
19163;SDS011;9714;51.208;4.242;2023-10-19T13:18:08;8.63;;;1.33;;
19163;SDS011;9714;51.208;4.242;2023-10-19T13:20:36;7.20;;;1.27;;
19163;SDS011;9714;51.208;4.242;2023-10-19T13:23:06;2.78;;;0.70;;
19163;SDS011;9714;51.208;4.242;2023-10-19T13:25:37;4.20;;;0.80;;
19163;SDS011;9714;51.208;4.242;2023-10-19T13:28:08;6.15;;;1.33;;
19163;SDS011;9714;51.208;4.242;2023-10-19T13:30:37;10.20;;;1.95;;
19163;SDS011;9714;51.208;4.242;2023-10-19T13:33:05;3.95;;;1.25;;
19163;SDS011;9714;51.208;4.242;2023-10-19T13:35:36;4.03;;;0.90;;
19163;SDS011;9714;51.208;4.242;2023-10-19T13:38:05;5.65;;;0.88;;
19163;SDS011;9714;51.208;4.242;2023-10-19T13:40:35;6.47;;;1.10;;
19163;SDS011;9714;51.208;4.242;2023-10-19T13:43:03;2.50;;;0.93;;
19163;SDS011;9714;51.208;4.242;2023-10-19T13:45:33;4.47;;;1.10;;
19163;SDS011;9714;51.208;4.242;2023-10-19T13:48:03;6.05;;;0.80;;
19163;SDS011;9714;51.208;4.242;2023-10-19T13:50:33;4.15;;;0.80;;
19163;SDS011;9714;51.208;4.242;2023-10-19T13:53:03;7.53;;;1.13;;
19163;SDS011;9714;51.208;4.242;2023-10-19T13:55:34;6.30;;;0.80;;
19163;SDS011;9714;51.208;4.242;2023-10-19T13:58:02;8.30;;;0.95;;
19163;SDS011;9714;51.208;4.242;2023-10-19T14:00:33;3.53;;;0.57;;
19163;SDS011;9714;51.208;4.242;2023-10-19T14:03:07;4.57;;;0.90;;
19163;SDS011;9714;51.208;4.242;2023-10-19T14:05:51;4.63;;;0.55;;
19163;SDS011;9714;51.208;4.242;2023-10-19T14:08:21;4.90;;;0.85;;
19163;SDS011;9714;51.208;4.242;2023-10-19T14:10:49;3.13;;;0.82;;
19163;SDS011;9714;51.208;4.242;2023-10-19T14:13:16;1.90;;;0.80;;
19163;SDS011;9714;51.208;4.242;2023-10-19T14:15:46;2.83;;;0.57;;
19163;SDS011;9714;51.208;4.242;2023-10-19T14:18:13;7.13;;;0.63;;
19163;SDS011;9714;51.208;4.242;2023-10-19T14:20:44;3.50;;;0.70;;
19163;SDS011;9714;51.208;4.242;2023-10-19T14:23:11;3.33;;;0.60;;
19163;SDS011;9714;51.208;4.242;2023-10-19T14:25:40;6.43;;;1.13;;
19163;SDS011;9714;51.208;4.242;2023-10-19T14:28:13;4.53;;;0.98;;
19163;SDS011;9714;51.208;4.242;2023-10-19T14:30:41;4.05;;;0.88;;
19163;SDS011;9714;51.208;4.242;2023-10-19T14:33:09;5.60;;;0.75;;
19163;SDS011;9714;51.208;4.242;2023-10-19T14:35:37;3.60;;;0.60;;
19163;SDS011;9714;51.208;4.242;2023-10-19T14:38:07;3.85;;;0.82;;
19163;SDS011;9714;51.208;4.242;2023-10-19T14:40:34;1.58;;;0.73;;
19163;SDS011;9714;51.208;4.242;2023-10-19T14:43:03;1.05;;;0.43;;
19163;SDS011;9714;51.208;4.242;2023-10-19T14:45:36;3.85;;;0.45;;
19163;SDS011;9714;51.208;4.242;2023-10-19T14:48:06;2.50;;;0.43;;
19163;SDS011;9714;51.208;4.242;2023-10-19T14:50:39;1.95;;;0.70;;
19163;SDS011;9714;51.208;4.242;2023-10-19T14:55:46;1.98;;;0.43;;
19163;SDS011;9714;51.208;4.242;2023-10-19T14:58:14;1.83;;;0.70;;
19163;SDS011;9714;51.208;4.242;2023-10-19T15:00:51;2.65;;;0.52;;
19163;SDS011;9714;51.208;4.242;2023-10-19T15:03:29;1.65;;;0.65;;
19163;SDS011;9714;51.208;4.242;2023-10-19T15:06:02;3.80;;;0.82;;
19163;SDS011;9714;51.208;4.242;2023-10-19T15:08:35;3.22;;;0.93;;
19163;SDS011;9714;51.208;4.242;2023-10-19T15:11:06;5.90;;;0.90;;
19163;SDS011;9714;51.208;4.242;2023-10-19T15:13:34;1.85;;;0.50;;
19163;SDS011;9714;51.208;4.242;2023-10-19T15:16:15;1.73;;;0.80;;
19163;SDS011;9714;51.208;4.242;2023-10-19T15:19:04;1.77;;;0.80;;
19163;SDS011;9714;51.208;4.242;2023-10-19T15:21:50;7.25;;;2.33;;
19163;SDS011;9714;51.208;4.242;2023-10-19T15:24:18;3.30;;;1.10;;
19163;SDS011;9714;51.208;4.242;2023-10-19T15:26:48;2.80;;;1.05;;
19163;SDS011;9714;51.208;4.242;2023-10-19T15:32:43;2.20;;;0.80;;
19163;SDS011;9714;51.208;4.242;2023-10-19T15:35:11;3.88;;;0.65;;
19163;SDS011;9714;51.208;4.242;2023-10-19T15:37:51;3.65;;;0.82;;
19163;SDS011;9714;51.208;4.242;2023-10-19T15:40:28;2.58;;;0.55;;
19163;SDS011;9714;51.208;4.242;2023-10-19T15:45:39;4.53;;;0.88;;
19163;SDS011;9714;51.208;4.242;2023-10-19T15:48:09;2.83;;;1.20;;
19163;SDS011;9714;51.208;4.242;2023-10-19T15:50:45;3.22;;;0.95;;
19163;SDS011;9714;51.208;4.242;2023-10-19T15:53:26;3.70;;;0.60;;
19163;SDS011;9714;51.208;4.242;2023-10-19T15:55:57;2.03;;;0.70;;
19163;SDS011;9714;51.208;4.242;2023-10-19T15:58:32;3.90;;;0.63;;
19163;SDS011;9714;51.208;4.242;2023-10-19T16:01:02;6.70;;;0.70;;
19163;SDS011;9714;51.208;4.242;2023-10-19T16:03:34;2.22;;;0.70;;
19163;SDS011;9714;51.208;4.242;2023-10-19T16:06:20;1.25;;;0.47;;
19163;SDS011;9714;51.208;4.242;2023-10-19T16:08:54;0.93;;;0.40;;